sensor_id;sensor_type;location;lat;lon;timestamp;P1;durP1;ratioP1;P2;durP2;ratioP2
47617;SDS011;33336;36.728;-4.414;2024-02-26T00:02:14;1.63;;;0.70;;
47617;SDS011;33336;36.728;-4.414;2024-02-26T00:07:18;1.70;;;0.82;;
47617;SDS011;33336;36.728;-4.414;2024-02-26T00:12:22;6.68;;;0.98;;
47617;SDS011;33336;36.728;-4.414;2024-02-26T00:17:26;3.08;;;1.02;;
47617;SDS011;33336;36.728;-4.414;2024-02-26T00:22:29;3.42;;;0.98;;
47617;SDS011;33336;36.728;-4.414;2024-02-26T00:27:33;5.97;;;0.90;;
47617;SDS011;33336;36.728;-4.414;2024-02-26T00:32:36;1.58;;;0.63;;
47617;SDS011;33336;36.728;-4.414;2024-02-26T00:37:40;5.28;;;1.00;;
47617;SDS011;33336;36.728;-4.414;2024-02-26T00:42:45;5.57;;;1.30;;
47617;SDS011;33336;36.728;-4.414;2024-02-26T00:47:49;5.40;;;1.58;;
47617;SDS011;33336;36.728;-4.414;2024-02-26T00:52:52;2.05;;;0.60;;
47617;SDS011;33336;36.728;-4.414;2024-02-26T00:57:56;2.83;;;0.90;;
47617;SDS011;33336;36.728;-4.414;2024-02-26T01:02:59;6.60;;;0.70;;
47617;SDS011;33336;36.728;-4.414;2024-02-26T01:08:04;2.70;;;0.63;;
47617;SDS011;33336;36.728;-4.414;2024-02-26T01:13:09;6.40;;;0.88;;
47617;SDS011;33336;36.728;-4.414;2024-02-26T01:18:12;5.22;;;0.90;;
47617;SDS011;33336;36.728;-4.414;2024-02-26T01:23:15;2.85;;;1.00;;
47617;SDS011;33336;36.728;-4.414;2024-02-26T01:28:20;5.90;;;1.10;;
47617;SDS011;33336;36.728;-4.414;2024-02-26T01:33:23;6.00;;;1.63;;
47617;SDS011;33336;36.728;-4.414;2024-02-26T01:38:27;11.32;;;1.50;;
47617;SDS011;33336;36.728;-4.414;2024-02-26T01:43:31;10.65;;;1.35;;
47617;SDS011;33336;36.728;-4.414;2024-02-26T01:48:34;7.65;;;1.40;;
47617;SDS011;33336;36.728;-4.414;2024-02-26T01:53:37;8.27;;;1.63;;
47617;SDS011;33336;36.728;-4.414;2024-02-26T01:58:42;12.10;;;2.05;;
47617;SDS011;33336;36.728;-4.414;2024-02-26T02:03:45;6.40;;;1.70;;
47617;SDS011;33336;36.728;-4.414;2024-02-26T02:08:49;9.55;;;2.10;;
47617;SDS011;33336;36.728;-4.414;2024-02-26T02:13:54;8.73;;;2.13;;
47617;SDS011;33336;36.728;-4.414;2024-02-26T02:18:57;13.75;;;2.15;;
47617;SDS011;33336;36.728;-4.414;2024-02-26T02:24:02;11.05;;;2.33;;
47617;SDS011;33336;36.728;-4.414;2024-02-26T02:29:05;9.20;;;1.77;;
47617;SDS011;33336;36.728;-4.414;2024-02-26T02:34:10;8.93;;;2.22;;
47617;SDS011;33336;36.728;-4.414;2024-02-26T02:39:14;9.95;;;2.05;;
47617;SDS011;33336;36.728;-4.414;2024-02-26T02:44:17;10.95;;;2.72;;
47617;SDS011;33336;36.728;-4.414;2024-02-26T02:49:21;11.20;;;1.60;;
47617;SDS011;33336;36.728;-4.414;2024-02-26T02:54:25;11.65;;;2.65;;
47617;SDS011;33336;36.728;-4.414;2024-02-26T02:59:29;8.82;;;2.15;;
47617;SDS011;33336;36.728;-4.414;2024-02-26T03:04:32;10.73;;;2.42;;
47617;SDS011;33336;36.728;-4.414;2024-02-26T03:09:36;10.80;;;2.45;;
47617;SDS011;33336;36.728;-4.414;2024-02-26T03:14:39;12.45;;;1.92;;
47617;SDS011;33336;36.728;-4.414;2024-02-26T03:19:43;10.43;;;2.00;;
47617;SDS011;33336;36.728;-4.414;2024-02-26T03:24:49;7.82;;;1.27;;
47617;SDS011;33336;36.728;-4.414;2024-02-26T03:29:52;8.55;;;2.20;;
47617;SDS011;33336;36.728;-4.414;2024-02-26T03:34:55;6.35;;;1.45;;
47617;SDS011;33336;36.728;-4.414;2024-02-26T03:39:59;6.10;;;1.17;;
47617;SDS011;33336;36.728;-4.414;2024-02-26T03:45:04;5.80;;;1.40;;
47617;SDS011;33336;36.728;-4.414;2024-02-26T03:50:08;3.42;;;1.10;;
47617;SDS011;33336;36.728;-4.414;2024-02-26T03:55:13;7.85;;;1.67;;
47617;SDS011;33336;36.728;-4.414;2024-02-26T04:00:16;6.43;;;1.33;;
47617;SDS011;33336;36.728;-4.414;2024-02-26T04:05:19;10.93;;;1.85;;
47617;SDS011;33336;36.728;-4.414;2024-02-26T04:10:24;10.10;;;1.98;;
47617;SDS011;33336;36.728;-4.414;2024-02-26T04:15:27;13.18;;;2.25;;
47617;SDS011;33336;36.728;-4.414;2024-02-26T04:20:31;10.85;;;2.22;;
47617;SDS011;33336;36.728;-4.414;2024-02-26T04:25:35;8.95;;;2.40;;
47617;SDS011;33336;36.728;-4.414;2024-02-26T04:30:38;14.05;;;2.35;;
47617;SDS011;33336;36.728;-4.414;2024-02-26T04:35:41;10.73;;;1.10;;
47617;SDS011;33336;36.728;-4.414;2024-02-26T04:40:45;11.98;;;2.00;;
47617;SDS011;33336;36.728;-4.414;2024-02-26T04:45:48;11.32;;;1.67;;
47617;SDS011;33336;36.728;-4.414;2024-02-26T04:50:52;8.85;;;2.15;;
47617;SDS011;33336;36.728;-4.414;2024-02-26T04:55:56;11.15;;;1.85;;
47617;SDS011;33336;36.728;-4.414;2024-02-26T05:01:00;11.18;;;1.80;;
47617;SDS011;33336;36.728;-4.414;2024-02-26T05:06:04;10.00;;;1.65;;
47617;SDS011;33336;36.728;-4.414;2024-02-26T05:11:09;12.48;;;2.55;;
47617;SDS011;33336;36.728;-4.414;2024-02-26T05:16:12;10.52;;;1.85;;
47617;SDS011;33336;36.728;-4.414;2024-02-26T05:21:15;8.68;;;2.03;;
47617;SDS011;33336;36.728;-4.414;2024-02-26T05:26:22;5.78;;;1.50;;
47617;SDS011;33336;36.728;-4.414;2024-02-26T05:31:26;7.68;;;2.00;;
47617;SDS011;33336;36.728;-4.414;2024-02-26T05:36:29;10.35;;;1.45;;
47617;SDS011;33336;36.728;-4.414;2024-02-26T05:41:35;7.30;;;1.90;;
47617;SDS011;33336;36.728;-4.414;2024-02-26T05:46:38;10.23;;;2.08;;
47617;SDS011;33336;36.728;-4.414;2024-02-26T05:51:41;9.02;;;1.45;;
47617;SDS011;33336;36.728;-4.414;2024-02-26T05:56:45;12.20;;;1.52;;
47617;SDS011;33336;36.728;-4.414;2024-02-26T06:01:48;8.50;;;1.52;;
47617;SDS011;33336;36.728;-4.414;2024-02-26T06:06:52;9.65;;;1.95;;
47617;SDS011;33336;36.728;-4.414;2024-02-26T06:11:56;6.00;;;1.48;;
47617;SDS011;33336;36.728;-4.414;2024-02-26T06:16:59;8.07;;;1.98;;
47617;SDS011;33336;36.728;-4.414;2024-02-26T06:22:02;7.72;;;2.08;;
47617;SDS011;33336;36.728;-4.414;2024-02-26T06:27:09;9.98;;;2.35;;
47617;SDS011;33336;36.728;-4.414;2024-02-26T06:32:12;7.38;;;1.25;;
47617;SDS011;33336;36.728;-4.414;2024-02-26T06:37:15;11.70;;;2.63;;
47617;SDS011;33336;36.728;-4.414;2024-02-26T06:42:20;25.00;;;3.65;;
47617;SDS011;33336;36.728;-4.414;2024-02-26T06:47:23;15.20;;;3.08;;
47617;SDS011;33336;36.728;-4.414;2024-02-26T06:52:27;16.23;;;3.67;;
47617;SDS011;33336;36.728;-4.414;2024-02-26T06:57:31;15.90;;;2.92;;
47617;SDS011;33336;36.728;-4.414;2024-02-26T07:02:35;16.63;;;2.95;;
47617;SDS011;33336;36.728;-4.414;2024-02-26T07:07:44;14.95;;;3.10;;
47617;SDS011;33336;36.728;-4.414;2024-02-26T07:12:49;19.85;;;3.83;;
47617;SDS011;33336;36.728;-4.414;2024-02-26T07:17:52;11.00;;;3.25;;
47617;SDS011;33336;36.728;-4.414;2024-02-26T07:22:55;12.48;;;2.58;;
47617;SDS011;33336;36.728;-4.414;2024-02-26T07:27:59;17.67;;;3.33;;
47617;SDS011;33336;36.728;-4.414;2024-02-26T07:33:03;14.70;;;2.47;;
47617;SDS011;33336;36.728;-4.414;2024-02-26T07:38:06;10.63;;;2.47;;
47617;SDS011;33336;36.728;-4.414;2024-02-26T07:43:10;18.38;;;2.60;;
47617;SDS011;33336;36.728;-4.414;2024-02-26T07:48:13;10.48;;;1.98;;
47617;SDS011;33336;36.728;-4.414;2024-02-26T07:53:17;14.35;;;2.88;;
47617;SDS011;33336;36.728;-4.414;2024-02-26T07:58:21;9.18;;;2.35;;
47617;SDS011;33336;36.728;-4.414;2024-02-26T08:03:26;9.93;;;1.67;;
47617;SDS011;33336;36.728;-4.414;2024-02-26T08:08:30;14.73;;;3.03;;
47617;SDS011;33336;36.728;-4.414;2024-02-26T08:13:35;75.10;;;7.40;;
47617;SDS011;33336;36.728;-4.414;2024-02-26T08:18:38;20.25;;;3.53;;
47617;SDS011;33336;36.728;-4.414;2024-02-26T08:23:42;11.40;;;2.10;;
47617;SDS011;33336;36.728;-4.414;2024-02-26T08:28:46;7.85;;;1.90;;
47617;SDS011;33336;36.728;-4.414;2024-02-26T08:33:50;16.00;;;3.22;;
47617;SDS011;33336;36.728;-4.414;2024-02-26T08:38:52;1.98;;;0.30;;
47617;SDS011;33336;36.728;-4.414;2024-02-26T08:43:57;9.25;;;1.10;;
47617;SDS011;33336;36.728;-4.414;2024-02-26T08:49:00;1.80;;;0.50;;
47617;SDS011;33336;36.728;-4.414;2024-02-26T08:54:04;1.73;;;0.50;;
47617;SDS011;33336;36.728;-4.414;2024-02-26T08:59:08;3.20;;;0.57;;
47617;SDS011;33336;36.728;-4.414;2024-02-26T09:04:12;0.47;;;0.30;;
47617;SDS011;33336;36.728;-4.414;2024-02-26T09:09:18;1.02;;;0.47;;
47617;SDS011;33336;36.728;-4.414;2024-02-26T09:14:24;3.28;;;0.60;;
47617;SDS011;33336;36.728;-4.414;2024-02-26T09:19:27;1.60;;;0.38;;
47617;SDS011;33336;36.728;-4.414;2024-02-26T09:24:30;0.43;;;0.43;;
47617;SDS011;33336;36.728;-4.414;2024-02-26T09:29:34;0.82;;;0.50;;
47617;SDS011;33336;36.728;-4.414;2024-02-26T09:34:39;4.85;;;0.68;;
47617;SDS011;33336;36.728;-4.414;2024-02-26T09:39:42;4.53;;;0.80;;
47617;SDS011;33336;36.728;-4.414;2024-02-26T09:44:47;1.90;;;0.63;;
47617;SDS011;33336;36.728;-4.414;2024-02-26T09:49:55;1.00;;;0.43;;
47617;SDS011;33336;36.728;-4.414;2024-02-26T09:54:59;2.25;;;0.38;;
47617;SDS011;33336;36.728;-4.414;2024-02-26T10:00:06;2.70;;;0.50;;
47617;SDS011;33336;36.728;-4.414;2024-02-26T10:05:13;1.27;;;0.50;;
47617;SDS011;33336;36.728;-4.414;2024-02-26T10:10:19;3.60;;;0.82;;
47617;SDS011;33336;36.728;-4.414;2024-02-26T10:15:23;1.13;;;0.73;;
47617;SDS011;33336;36.728;-4.414;2024-02-26T10:20:26;3.13;;;0.90;;
47617;SDS011;33336;36.728;-4.414;2024-02-26T10:25:30;4.82;;;0.82;;
47617;SDS011;33336;36.728;-4.414;2024-02-26T10:30:36;4.43;;;0.88;;
47617;SDS011;33336;36.728;-4.414;2024-02-26T10:35:40;2.95;;;1.30;;
47617;SDS011;33336;36.728;-4.414;2024-02-26T10:40:48;3.40;;;1.02;;
47617;SDS011;33336;36.728;-4.414;2024-02-26T10:45:53;2.45;;;0.52;;
47617;SDS011;33336;36.728;-4.414;2024-02-26T10:50:57;3.42;;;1.08;;
47617;SDS011;33336;36.728;-4.414;2024-02-26T10:56:02;4.70;;;0.98;;
47617;SDS011;33336;36.728;-4.414;2024-02-26T11:01:08;4.72;;;0.95;;
47617;SDS011;33336;36.728;-4.414;2024-02-26T11:06:12;7.57;;;1.10;;
47617;SDS011;33336;36.728;-4.414;2024-02-26T11:11:17;3.88;;;0.90;;
47617;SDS011;33336;36.728;-4.414;2024-02-26T11:16:23;4.53;;;1.10;;
47617;SDS011;33336;36.728;-4.414;2024-02-26T11:21:27;5.22;;;0.85;;
47617;SDS011;33336;36.728;-4.414;2024-02-26T11:26:41;5.40;;;0.82;;
47617;SDS011;33336;36.728;-4.414;2024-02-26T11:31:50;5.40;;;0.90;;
47617;SDS011;33336;36.728;-4.414;2024-02-26T11:36:55;6.95;;;1.02;;
47617;SDS011;33336;36.728;-4.414;2024-02-26T11:42:04;4.38;;;0.75;;
47617;SDS011;33336;36.728;-4.414;2024-02-26T11:47:13;4.90;;;1.15;;
47617;SDS011;33336;36.728;-4.414;2024-02-26T11:52:20;3.40;;;0.80;;
47617;SDS011;33336;36.728;-4.414;2024-02-26T11:57:24;5.35;;;1.25;;
47617;SDS011;33336;36.728;-4.414;2024-02-26T12:02:41;3.95;;;0.90;;
47617;SDS011;33336;36.728;-4.414;2024-02-26T12:07:47;3.45;;;0.88;;
47617;SDS011;33336;36.728;-4.414;2024-02-26T12:12:54;5.22;;;2.15;;
47617;SDS011;33336;36.728;-4.414;2024-02-26T12:18:05;3.83;;;0.85;;
47617;SDS011;33336;36.728;-4.414;2024-02-26T12:23:14;4.55;;;1.15;;
47617;SDS011;33336;36.728;-4.414;2024-02-26T12:28:19;1.70;;;0.75;;
47617;SDS011;33336;36.728;-4.414;2024-02-26T12:33:23;5.38;;;1.00;;
47617;SDS011;33336;36.728;-4.414;2024-02-26T12:38:27;4.55;;;1.00;;
47617;SDS011;33336;36.728;-4.414;2024-02-26T12:43:31;4.78;;;0.93;;
47617;SDS011;33336;36.728;-4.414;2024-02-26T12:48:35;6.57;;;1.58;;
47617;SDS011;33336;36.728;-4.414;2024-02-26T12:53:39;3.92;;;1.13;;
47617;SDS011;33336;36.728;-4.414;2024-02-26T12:58:41;4.97;;;1.33;;
47617;SDS011;33336;36.728;-4.414;2024-02-26T13:03:47;2.20;;;0.88;;
47617;SDS011;33336;36.728;-4.414;2024-02-26T13:08:54;5.72;;;1.15;;
47617;SDS011;33336;36.728;-4.414;2024-02-26T13:14:01;5.43;;;1.30;;
47617;SDS011;33336;36.728;-4.414;2024-02-26T13:19:13;4.38;;;1.95;;
47617;SDS011;33336;36.728;-4.414;2024-02-26T13:24:17;8.50;;;0.80;;
47617;SDS011;33336;36.728;-4.414;2024-02-26T13:29:21;5.00;;;1.13;;
47617;SDS011;33336;36.728;-4.414;2024-02-26T13:34:28;3.75;;;1.15;;
47617;SDS011;33336;36.728;-4.414;2024-02-26T13:39:32;3.10;;;0.95;;
47617;SDS011;33336;36.728;-4.414;2024-02-26T13:44:35;4.30;;;1.30;;
47617;SDS011;33336;36.728;-4.414;2024-02-26T13:49:41;5.10;;;1.08;;
47617;SDS011;33336;36.728;-4.414;2024-02-26T13:54:45;7.72;;;1.38;;
47617;SDS011;33336;36.728;-4.414;2024-02-26T13:59:47;4.25;;;1.30;;
47617;SDS011;33336;36.728;-4.414;2024-02-26T14:04:53;2.65;;;0.90;;
47617;SDS011;33336;36.728;-4.414;2024-02-26T14:09:56;3.75;;;0.88;;
47617;SDS011;33336;36.728;-4.414;2024-02-26T14:14:59;3.05;;;0.73;;
47617;SDS011;33336;36.728;-4.414;2024-02-26T14:20:07;2.80;;;1.00;;
47617;SDS011;33336;36.728;-4.414;2024-02-26T14:25:10;4.70;;;1.02;;
47617;SDS011;33336;36.728;-4.414;2024-02-26T14:30:13;6.05;;;0.93;;
47617;SDS011;33336;36.728;-4.414;2024-02-26T14:35:18;2.50;;;0.63;;
47617;SDS011;33336;36.728;-4.414;2024-02-26T14:40:21;3.40;;;1.23;;
47617;SDS011;33336;36.728;-4.414;2024-02-26T14:45:24;2.38;;;0.73;;
47617;SDS011;33336;36.728;-4.414;2024-02-26T14:50:28;2.28;;;0.68;;
47617;SDS011;33336;36.728;-4.414;2024-02-26T14:55:32;0.88;;;0.55;;
47617;SDS011;33336;36.728;-4.414;2024-02-26T15:00:35;1.10;;;0.63;;
47617;SDS011;33336;36.728;-4.414;2024-02-26T15:05:39;3.33;;;1.00;;
47617;SDS011;33336;36.728;-4.414;2024-02-26T15:10:42;5.93;;;0.68;;
47617;SDS011;33336;36.728;-4.414;2024-02-26T15:15:49;2.87;;;0.70;;
47617;SDS011;33336;36.728;-4.414;2024-02-26T15:20:53;1.58;;;0.50;;
47617;SDS011;33336;36.728;-4.414;2024-02-26T15:25:57;4.88;;;0.47;;
47617;SDS011;33336;36.728;-4.414;2024-02-26T15:30:59;2.63;;;0.47;;
47617;SDS011;33336;36.728;-4.414;2024-02-26T15:36:04;0.73;;;0.40;;
47617;SDS011;33336;36.728;-4.414;2024-02-26T15:41:11;1.17;;;0.40;;
47617;SDS011;33336;36.728;-4.414;2024-02-26T15:46:15;1.75;;;0.68;;
47617;SDS011;33336;36.728;-4.414;2024-02-26T15:51:20;1.25;;;0.68;;
47617;SDS011;33336;36.728;-4.414;2024-02-26T15:56:25;9.27;;;1.10;;
47617;SDS011;33336;36.728;-4.414;2024-02-26T16:01:27;4.35;;;1.00;;
47617;SDS011;33336;36.728;-4.414;2024-02-26T16:06:33;5.63;;;0.75;;
47617;SDS011;33336;36.728;-4.414;2024-02-26T16:11:39;3.33;;;0.90;;
47617;SDS011;33336;36.728;-4.414;2024-02-26T16:16:50;3.67;;;0.73;;
47617;SDS011;33336;36.728;-4.414;2024-02-26T16:21:58;6.32;;;0.75;;
47617;SDS011;33336;36.728;-4.414;2024-02-26T16:27:01;2.03;;;0.93;;
47617;SDS011;33336;36.728;-4.414;2024-02-26T16:32:04;2.35;;;0.77;;
47617;SDS011;33336;36.728;-4.414;2024-02-26T16:37:10;1.95;;;0.93;;
47617;SDS011;33336;36.728;-4.414;2024-02-26T16:42:14;2.45;;;0.70;;
47617;SDS011;33336;36.728;-4.414;2024-02-26T16:47:17;3.10;;;0.93;;
47617;SDS011;33336;36.728;-4.414;2024-02-26T16:52:22;4.55;;;1.55;;
47617;SDS011;33336;36.728;-4.414;2024-02-26T16:57:25;2.45;;;0.88;;
47617;SDS011;33336;36.728;-4.414;2024-02-26T17:02:28;4.22;;;1.48;;
47617;SDS011;33336;36.728;-4.414;2024-02-26T17:07:33;6.10;;;1.65;;
47617;SDS011;33336;36.728;-4.414;2024-02-26T17:12:36;5.70;;;1.30;;
47617;SDS011;33336;36.728;-4.414;2024-02-26T17:17:41;2.03;;;0.80;;
47617;SDS011;33336;36.728;-4.414;2024-02-26T17:22:46;3.08;;;0.77;;
47617;SDS011;33336;36.728;-4.414;2024-02-26T17:27:48;5.60;;;1.20;;
47617;SDS011;33336;36.728;-4.414;2024-02-26T17:32:51;4.32;;;0.85;;
47617;SDS011;33336;36.728;-4.414;2024-02-26T17:37:56;5.07;;;0.90;;
47617;SDS011;33336;36.728;-4.414;2024-02-26T17:43:01;3.57;;;0.87;;
47617;SDS011;33336;36.728;-4.414;2024-02-26T17:48:05;4.03;;;0.60;;
47617;SDS011;33336;36.728;-4.414;2024-02-26T17:53:09;1.83;;;0.57;;
47617;SDS011;33336;36.728;-4.414;2024-02-26T17:58:14;2.53;;;1.05;;
47617;SDS011;33336;36.728;-4.414;2024-02-26T18:03:18;2.90;;;0.98;;
47617;SDS011;33336;36.728;-4.414;2024-02-26T18:08:23;2.33;;;0.52;;
47617;SDS011;33336;36.728;-4.414;2024-02-26T18:13:26;2.95;;;0.88;;
47617;SDS011;33336;36.728;-4.414;2024-02-26T18:18:29;4.07;;;0.73;;
47617;SDS011;33336;36.728;-4.414;2024-02-26T18:23:34;2.70;;;0.63;;
47617;SDS011;33336;36.728;-4.414;2024-02-26T18:28:37;3.67;;;0.80;;
47617;SDS011;33336;36.728;-4.414;2024-02-26T18:33:40;2.03;;;0.80;;
47617;SDS011;33336;36.728;-4.414;2024-02-26T18:38:45;1.70;;;0.75;;
47617;SDS011;33336;36.728;-4.414;2024-02-26T18:43:48;2.47;;;0.60;;
47617;SDS011;33336;36.728;-4.414;2024-02-26T18:48:52;2.53;;;0.65;;
47617;SDS011;33336;36.728;-4.414;2024-02-26T18:53:57;2.35;;;0.90;;
47617;SDS011;33336;36.728;-4.414;2024-02-26T18:58:59;2.42;;;1.33;;
47617;SDS011;33336;36.728;-4.414;2024-02-26T19:04:02;2.90;;;0.80;;
47617;SDS011;33336;36.728;-4.414;2024-02-26T19:09:08;1.92;;;0.68;;
47617;SDS011;33336;36.728;-4.414;2024-02-26T19:14:11;2.63;;;0.90;;
47617;SDS011;33336;36.728;-4.414;2024-02-26T19:19:14;3.42;;;0.93;;
47617;SDS011;33336;36.728;-4.414;2024-02-26T19:24:18;3.53;;;1.13;;
47617;SDS011;33336;36.728;-4.414;2024-02-26T19:29:21;4.10;;;1.08;;
47617;SDS011;33336;36.728;-4.414;2024-02-26T19:34:26;5.18;;;1.20;;
47617;SDS011;33336;36.728;-4.414;2024-02-26T19:39:30;3.42;;;1.00;;
47617;SDS011;33336;36.728;-4.414;2024-02-26T19:44:32;3.05;;;0.77;;
47617;SDS011;33336;36.728;-4.414;2024-02-26T19:49:35;2.10;;;0.90;;
47617;SDS011;33336;36.728;-4.414;2024-02-26T19:54:40;7.45;;;1.48;;
47617;SDS011;33336;36.728;-4.414;2024-02-26T19:59:43;4.10;;;0.50;;
47617;SDS011;33336;36.728;-4.414;2024-02-26T20:04:46;2.63;;;0.73;;
47617;SDS011;33336;36.728;-4.414;2024-02-26T20:09:50;6.05;;;0.70;;
47617;SDS011;33336;36.728;-4.414;2024-02-26T20:14:53;2.55;;;0.75;;
47617;SDS011;33336;36.728;-4.414;2024-02-26T20:19:56;3.20;;;1.33;;
47617;SDS011;33336;36.728;-4.414;2024-02-26T20:25:01;5.22;;;1.13;;
47617;SDS011;33336;36.728;-4.414;2024-02-26T20:30:05;3.53;;;0.63;;
47617;SDS011;33336;36.728;-4.414;2024-02-26T20:35:08;1.85;;;0.75;;
47617;SDS011;33336;36.728;-4.414;2024-02-26T20:40:13;5.40;;;1.20;;
47617;SDS011;33336;36.728;-4.414;2024-02-26T20:45:20;3.55;;;1.05;;
47617;SDS011;33336;36.728;-4.414;2024-02-26T20:50:23;2.03;;;0.88;;
47617;SDS011;33336;36.728;-4.414;2024-02-26T20:55:27;2.20;;;0.90;;
47617;SDS011;33336;36.728;-4.414;2024-02-26T21:00:30;2.17;;;0.68;;
47617;SDS011;33336;36.728;-4.414;2024-02-26T21:05:33;2.13;;;0.57;;
47617;SDS011;33336;36.728;-4.414;2024-02-26T21:10:39;2.33;;;1.02;;
47617;SDS011;33336;36.728;-4.414;2024-02-26T21:15:43;4.10;;;0.90;;
47617;SDS011;33336;36.728;-4.414;2024-02-26T21:20:47;2.03;;;0.55;;
47617;SDS011;33336;36.728;-4.414;2024-02-26T21:25:52;3.17;;;1.17;;
47617;SDS011;33336;36.728;-4.414;2024-02-26T21:30:55;2.53;;;1.20;;
47617;SDS011;33336;36.728;-4.414;2024-02-26T21:35:59;4.53;;;0.93;;
47617;SDS011;33336;36.728;-4.414;2024-02-26T21:41:04;2.85;;;0.70;;
47617;SDS011;33336;36.728;-4.414;2024-02-26T21:46:06;3.65;;;1.08;;
47617;SDS011;33336;36.728;-4.414;2024-02-26T21:51:10;1.48;;;0.50;;
47617;SDS011;33336;36.728;-4.414;2024-02-26T21:56:15;5.00;;;0.95;;
47617;SDS011;33336;36.728;-4.414;2024-02-26T22:01:18;4.70;;;0.75;;
47617;SDS011;33336;36.728;-4.414;2024-02-26T22:06:21;3.70;;;1.00;;
47617;SDS011;33336;36.728;-4.414;2024-02-26T22:11:26;6.05;;;1.05;;
47617;SDS011;33336;36.728;-4.414;2024-02-26T22:16:28;2.55;;;0.80;;
47617;SDS011;33336;36.728;-4.414;2024-02-26T22:21:34;1.42;;;0.65;;
47617;SDS011;33336;36.728;-4.414;2024-02-26T22:26:39;3.17;;;1.00;;
47617;SDS011;33336;36.728;-4.414;2024-02-26T22:31:45;2.00;;;1.07;;
47617;SDS011;33336;36.728;-4.414;2024-02-26T22:36:52;2.53;;;1.05;;
47617;SDS011;33336;36.728;-4.414;2024-02-26T22:41:57;7.00;;;1.13;;
47617;SDS011;33336;36.728;-4.414;2024-02-26T22:47:00;3.42;;;1.13;;
47617;SDS011;33336;36.728;-4.414;2024-02-26T22:52:05;2.13;;;0.90;;
47617;SDS011;33336;36.728;-4.414;2024-02-26T22:57:09;6.88;;;1.17;;
47617;SDS011;33336;36.728;-4.414;2024-02-26T23:02:12;6.65;;;1.27;;
47617;SDS011;33336;36.728;-4.414;2024-02-26T23:07:15;5.15;;;1.05;;
47617;SDS011;33336;36.728;-4.414;2024-02-26T23:12:19;4.07;;;1.30;;
47617;SDS011;33336;36.728;-4.414;2024-02-26T23:17:22;4.45;;;1.25;;
47617;SDS011;33336;36.728;-4.414;2024-02-26T23:22:27;3.55;;;0.90;;
47617;SDS011;33336;36.728;-4.414;2024-02-26T23:27:32;4.65;;;1.00;;
47617;SDS011;33336;36.728;-4.414;2024-02-26T23:32:34;4.13;;;1.02;;
47617;SDS011;33336;36.728;-4.414;2024-02-26T23:37:39;2.92;;;0.90;;
47617;SDS011;33336;36.728;-4.414;2024-02-26T23:42:43;3.88;;;1.10;;
47617;SDS011;33336;36.728;-4.414;2024-02-26T23:47:46;3.55;;;1.17;;
47617;SDS011;33336;36.728;-4.414;2024-02-26T23:52:49;3.13;;;0.80;;
47617;SDS011;33336;36.728;-4.414;2024-02-26T23:57:54;5.80;;;1.15;;
